Webcam

2018/06/24 16:20 EBBR 241620Z 36008KT 9999 BKN046 19/10 Q1023 NOSIG

Webcam

--- Refresh now ---